createdAt,value
2022-09-21T00:01:33.233Z,1.90
2022-09-21T00:04:03.561Z,1.50
2022-09-21T00:06:34.135Z,1.83
2022-09-21T00:09:01.324Z,1.27
2022-09-21T00:11:31.286Z,1.30
2022-09-21T00:14:04.577Z,1.50
2022-09-21T00:16:32.251Z,1.83
2022-09-21T00:19:03.709Z,1.40
2022-09-21T00:21:31.068Z,1.77
2022-09-21T00:24:02.701Z,1.27
2022-09-21T00:26:30.446Z,1.63
2022-09-21T00:29:02.564Z,1.52
2022-09-21T00:31:31.532Z,1.73
2022-09-21T00:34:03.651Z,1.77
2022-09-21T00:36:31.272Z,1.50
2022-09-21T00:39:01.631Z,1.70
2022-09-21T00:41:32.908Z,1.83
2022-09-21T00:44:18.776Z,2.08
2022-09-21T00:46:49.093Z,1.63
2022-09-21T00:49:17.756Z,1.65
2022-09-21T00:51:49.566Z,1.55
2022-09-21T00:54:46.758Z,1.88
2022-09-21T00:57:16.980Z,1.90
2022-09-21T00:59:45.680Z,1.98
2022-09-21T01:02:12.767Z,1.88
2022-09-21T01:04:39.841Z,1.92
2022-09-21T01:07:18.306Z,1.63
2022-09-21T01:09:51.050Z,1.77
2022-09-21T01:12:55.475Z,1.80
2022-09-21T01:15:45.414Z,1.60
2022-09-21T01:18:46.801Z,1.77
2022-09-21T01:21:35.126Z,1.42
2022-09-21T01:24:42.780Z,1.80
2022-09-21T01:27:46.073Z,1.60
2022-09-21T01:30:19.207Z,1.52
2022-09-21T01:33:09.660Z,1.77
2022-09-21T01:35:47.702Z,1.70
2022-09-21T01:38:23.032Z,1.73
2022-09-21T01:40:56.968Z,1.80
2022-09-21T01:43:36.615Z,1.52
2022-09-21T01:46:07.307Z,1.60
2022-09-21T01:48:41.956Z,1.80
2022-09-21T01:51:15.013Z,1.55
2022-09-21T01:53:51.425Z,1.20
2022-09-21T01:56:21.260Z,1.60
2022-09-21T01:59:11.288Z,1.70
2022-09-21T02:01:56.473Z,1.13
2022-09-21T02:04:24.334Z,1.92
2022-09-21T02:06:53.980Z,1.48
2022-09-21T02:09:25.242Z,1.92
2022-09-21T02:11:52.327Z,1.88
2022-09-21T02:14:25.363Z,1.50
2022-09-21T02:17:02.253Z,1.23
2022-09-21T02:19:41.185Z,1.42
2022-09-21T02:22:29.381Z,1.67
2022-09-21T02:25:09.715Z,1.55
2022-09-21T02:27:51.512Z,1.38
2022-09-21T02:30:26.639Z,1.60
2022-09-21T02:33:32.867Z,1.65
2022-09-21T02:36:10.301Z,1.80
2022-09-21T02:39:05.172Z,1.65
2022-09-21T02:42:03.820Z,1.30
2022-09-21T02:44:46.677Z,2.03
2022-09-21T02:47:38.473Z,2.40
2022-09-21T02:50:12.911Z,1.42
2022-09-21T02:52:43.474Z,1.60
2022-09-21T02:55:17.098Z,1.88
2022-09-21T02:57:47.956Z,1.60
2022-09-21T03:00:19.030Z,1.52
2022-09-21T03:02:46.552Z,1.58
2022-09-21T03:05:17.307Z,1.63
2022-09-21T03:07:48.591Z,1.63
2022-09-21T03:10:19.211Z,1.90
2022-09-21T03:12:49.632Z,1.42
2022-09-21T03:15:17.751Z,1.48
2022-09-21T03:17:44.803Z,1.65
2022-09-21T03:20:16.567Z,1.40
2022-09-21T03:22:43.612Z,1.38
2022-09-21T03:25:13.106Z,1.50
2022-09-21T03:27:41.318Z,1.58
2022-09-21T03:30:08.993Z,1.67
2022-09-21T03:32:36.013Z,2.20
2022-09-21T03:35:06.863Z,1.52
2022-09-21T03:37:36.103Z,1.60
2022-09-21T03:40:07.058Z,1.60
2022-09-21T03:42:34.494Z,1.98
2022-09-21T03:45:02.460Z,1.80
2022-09-21T03:47:29.607Z,1.30
2022-09-21T03:49:56.594Z,1.63
2022-09-21T03:52:23.677Z,1.45
2022-09-21T03:54:50.792Z,2.25
2022-09-21T03:57:17.895Z,1.80
2022-09-21T03:59:44.901Z,1.45
2022-09-21T04:02:12.402Z,1.55
2022-09-21T04:04:39.957Z,1.33
2022-09-21T04:07:07.141Z,2.00
2022-09-21T04:09:34.420Z,2.72
2022-09-21T04:12:02.138Z,2.70
2022-09-21T04:14:29.855Z,2.70
2022-09-21T04:17:00.456Z,2.70
2022-09-21T04:19:27.700Z,2.75
2022-09-21T04:21:57.378Z,1.95
2022-09-21T04:24:24.618Z,1.98
2022-09-21T04:26:51.627Z,1.98
2022-09-21T04:29:18.710Z,1.73
2022-09-21T04:31:48.523Z,2.08
2022-09-21T04:34:15.595Z,2.10
2022-09-21T04:36:43.380Z,1.77
2022-09-21T04:39:10.550Z,1.90
2022-09-21T04:41:37.625Z,2.15
2022-09-21T04:44:05.330Z,2.08
2022-09-21T04:46:32.452Z,2.05
2022-09-21T04:48:59.971Z,1.90
2022-09-21T04:51:27.127Z,2.28
2022-09-21T04:53:54.333Z,2.25
2022-09-21T04:56:21.523Z,2.50
2022-09-21T04:58:48.585Z,1.92
2022-09-21T05:01:15.710Z,2.75
2022-09-21T05:03:42.866Z,2.45
2022-09-21T05:06:13.320Z,2.33
2022-09-21T05:08:59.409Z,2.13
2022-09-21T05:11:26.772Z,2.20
2022-09-21T05:13:54.363Z,2.35
2022-09-21T05:16:21.841Z,2.30
2022-09-21T05:18:56.947Z,2.70
2022-09-21T05:21:24.571Z,2.58
2022-09-21T05:23:55.041Z,2.33
2022-09-21T05:26:26.099Z,2.17
2022-09-21T05:28:56.850Z,2.35
2022-09-21T05:31:51.665Z,2.85
2022-09-21T05:35:04.455Z,2.65
2022-09-21T05:37:59.187Z,2.90
2022-09-21T05:40:27.079Z,2.97
2022-09-21T05:42:54.596Z,2.40
2022-09-21T05:45:23.067Z,2.88
2022-09-21T05:48:40.498Z,2.67
2022-09-21T05:51:45.549Z,2.20
2022-09-21T05:54:22.781Z,2.63
2022-09-21T05:57:30.655Z,2.05
2022-09-21T06:00:22.217Z,2.65
2022-09-21T06:03:17.850Z,2.80
2022-09-21T06:05:45.376Z,2.65
2022-09-21T06:08:15.202Z,2.63
2022-09-21T06:10:45.932Z,2.75
2022-09-21T06:13:12.972Z,2.42
2022-09-21T06:15:40.239Z,2.20
2022-09-21T06:18:08.823Z,2.72
2022-09-21T06:20:36.060Z,2.17
2022-09-21T06:23:06.028Z,2.53
2022-09-21T06:25:33.708Z,2.47
2022-09-21T06:28:10.312Z,2.20
2022-09-21T06:30:42.359Z,2.00
2022-09-21T06:33:10.288Z,2.47
2022-09-21T06:35:37.878Z,2.40
2022-09-21T06:38:08.000Z,2.38
2022-09-21T06:40:37.375Z,1.92
2022-09-21T06:43:08.005Z,2.42
2022-09-21T06:45:38.634Z,2.50
2022-09-21T06:48:05.774Z,2.03
2022-09-21T06:50:36.642Z,2.47
2022-09-21T06:53:04.305Z,2.33
2022-09-21T06:55:31.997Z,2.10
2022-09-21T06:58:05.314Z,2.58
2022-09-21T07:00:33.277Z,2.45
2022-09-21T07:03:04.015Z,2.47
2022-09-21T07:05:34.220Z,2.38
2022-09-21T07:08:05.399Z,2.30
2022-09-21T07:10:32.992Z,2.75
2022-09-21T07:13:06.002Z,2.53
2022-09-21T07:15:33.709Z,2.95
2022-09-21T07:18:07.953Z,2.72
2022-09-21T07:20:35.077Z,2.72
2022-09-21T07:23:15.318Z,2.40
2022-09-21T07:25:44.978Z,2.85
2022-09-21T07:28:13.078Z,2.90
2022-09-21T07:30:42.009Z,2.92
2022-09-21T07:33:09.316Z,2.90
2022-09-21T07:35:36.344Z,3.08
2022-09-21T07:38:07.671Z,2.80
2022-09-21T07:40:35.897Z,3.22
2022-09-21T07:43:03.212Z,3.28
2022-09-21T07:45:31.374Z,3.60
2022-09-21T07:48:05.418Z,3.88
2022-09-21T07:50:36.859Z,3.40
2022-09-21T07:53:07.040Z,3.97
2022-09-21T07:55:36.996Z,3.55
2022-09-21T07:58:23.316Z,3.58
2022-09-21T08:00:54.150Z,3.67
2022-09-21T08:03:24.427Z,3.90
2022-09-21T08:05:52.334Z,3.88
2022-09-21T08:08:19.974Z,2.90
2022-09-21T08:10:47.122Z,3.33
2022-09-21T08:13:14.388Z,2.85
2022-09-21T08:15:49.696Z,3.10
2022-09-21T08:18:17.332Z,3.03
2022-09-21T08:20:44.418Z,3.05
2022-09-21T08:23:11.939Z,2.60
2022-09-21T08:25:38.996Z,2.55
2022-09-21T08:28:09.630Z,2.80
2022-09-21T08:30:37.587Z,2.50
2022-09-21T08:33:04.820Z,2.30
2022-09-21T08:35:31.930Z,2.35
2022-09-21T08:38:03.052Z,2.53
2022-09-21T08:40:30.192Z,2.50
2022-09-21T08:43:02.906Z,2.60
2022-09-21T08:45:38.041Z,2.38
2022-09-21T08:48:16.771Z,2.10
2022-09-21T08:51:11.391Z,2.45
2022-09-21T08:53:46.639Z,2.25
2022-09-21T08:56:16.019Z,2.15
2022-09-21T08:58:43.643Z,2.40
2022-09-21T09:01:20.420Z,2.45
2022-09-21T09:04:21.383Z,2.17
2022-09-21T09:07:08.658Z,2.88
2022-09-21T09:10:06.686Z,1.88
2022-09-21T09:12:51.832Z,2.15
2022-09-21T09:15:55.147Z,2.38
2022-09-21T09:18:47.920Z,2.38
2022-09-21T09:21:29.237Z,2.30
2022-09-21T09:24:10.285Z,2.42
2022-09-21T09:27:06.284Z,2.50
2022-09-21T09:29:45.711Z,2.58
2022-09-21T09:32:16.863Z,2.10
2022-09-21T09:35:05.231Z,2.30
2022-09-21T09:37:39.533Z,2.05
2022-09-21T09:40:08.653Z,2.20
2022-09-21T09:43:07.754Z,2.13
2022-09-21T09:46:00.522Z,2.00
2022-09-21T09:48:54.083Z,2.50
2022-09-21T09:51:21.566Z,2.10
2022-09-21T09:53:49.272Z,2.25
2022-09-21T09:56:18.578Z,2.60
2022-09-21T09:58:54.559Z,2.20
2022-09-21T10:01:46.509Z,1.90
2022-09-21T10:04:17.725Z,2.38
2022-09-21T10:06:46.632Z,2.25
2022-09-21T10:09:33.494Z,2.17
2022-09-21T10:14:54.920Z,2.33
2022-09-21T10:17:25.345Z,1.70
2022-09-21T10:20:08.555Z,1.67
2022-09-21T10:22:36.265Z,1.42
2022-09-21T10:25:06.214Z,1.38
2022-09-21T10:27:37.103Z,1.85
2022-09-21T10:30:04.911Z,1.58
2022-09-21T10:32:56.877Z,1.83
2022-09-21T10:35:25.178Z,1.42
2022-09-21T10:38:22.128Z,1.38
2022-09-21T10:40:50.688Z,1.48
2022-09-21T10:43:39.872Z,1.40
2022-09-21T10:46:10.307Z,1.30
2022-09-21T10:48:37.984Z,1.08
2022-09-21T10:51:05.466Z,1.30
2022-09-21T10:53:36.309Z,1.27
2022-09-21T10:56:17.409Z,1.23
2022-09-21T10:59:26.981Z,0.90
2022-09-21T11:01:57.971Z,1.30
2022-09-21T11:04:49.455Z,0.90
2022-09-21T11:07:28.311Z,0.70
2022-09-21T11:10:16.953Z,0.65
2022-09-21T11:13:14.734Z,0.83
2022-09-21T11:16:14.100Z,0.70
2022-09-21T11:19:10.492Z,0.50
2022-09-21T11:21:45.369Z,0.60
2022-09-21T11:24:43.461Z,0.30
2022-09-21T11:27:35.985Z,0.45
2022-09-21T11:30:18.881Z,0.57
2022-09-21T11:33:04.224Z,0.57
2022-09-21T11:35:58.191Z,0.60
2022-09-21T11:38:49.813Z,0.63
2022-09-21T11:41:50.147Z,0.55
2022-09-21T11:45:03.916Z,0.60
2022-09-21T11:47:55.220Z,0.70
2022-09-21T11:51:08.527Z,0.73
2022-09-21T11:54:08.480Z,0.60
2022-09-21T11:57:05.588Z,0.65
2022-09-21T12:00:17.232Z,0.40
2022-09-21T12:03:36.693Z,0.50
2022-09-21T12:06:43.366Z,0.60
2022-09-21T12:09:25.844Z,0.60
2022-09-21T12:12:14.458Z,0.40
2022-09-21T12:15:02.301Z,0.52
2022-09-21T12:17:39.568Z,0.40
2022-09-21T12:20:25.957Z,0.45
2022-09-21T12:23:04.766Z,0.50
2022-09-21T12:25:39.011Z,0.60
2022-09-21T12:28:30.276Z,0.38
2022-09-21T12:31:09.551Z,0.47
2022-09-21T12:33:46.990Z,0.68
2022-09-21T12:36:35.094Z,0.50
2022-09-21T12:39:18.247Z,0.65
2022-09-21T12:42:03.027Z,0.60
2022-09-21T12:44:59.807Z,0.85
2022-09-21T12:47:49.539Z,0.98
2022-09-21T12:50:50.104Z,0.80
2022-09-21T12:53:23.233Z,0.40
2022-09-21T12:56:26.583Z,0.70
2022-09-21T12:59:43.544Z,0.85
2022-09-21T13:02:41.228Z,0.85
2022-09-21T13:05:21.555Z,0.70
2022-09-21T13:08:29.419Z,0.55
2022-09-21T13:11:10.611Z,0.70
2022-09-21T13:14:04.581Z,0.70
2022-09-21T13:16:35.450Z,0.40
2022-09-21T13:19:22.157Z,0.60
2022-09-21T13:22:19.977Z,0.63
2022-09-21T13:25:28.233Z,2.90
2022-09-21T13:28:13.646Z,1.00
2022-09-21T13:31:09.716Z,0.75
2022-09-21T13:34:01.712Z,0.65
2022-09-21T13:37:16.861Z,0.40
2022-09-21T13:39:47.997Z,0.60
2022-09-21T13:42:33.694Z,0.80
2022-09-21T13:45:16.281Z,0.70
2022-09-21T13:47:45.872Z,1.00
2022-09-21T13:50:44.242Z,0.55
2022-09-21T13:53:35.845Z,1.08
2022-09-21T13:56:20.401Z,1.10
2022-09-21T13:58:52.862Z,1.00
2022-09-21T14:01:45.671Z,1.17
2022-09-21T14:04:24.482Z,1.42
2022-09-21T14:06:54.288Z,1.27
2022-09-21T14:09:34.845Z,1.00
2022-09-21T14:12:06.682Z,1.20
2022-09-21T14:14:38.272Z,1.27
2022-09-21T14:17:38.442Z,1.05
2022-09-21T14:20:35.831Z,1.15
2022-09-21T14:23:19.361Z,1.00
2022-09-21T14:25:56.915Z,1.02
2022-09-21T14:28:42.006Z,0.85
2022-09-21T14:31:29.576Z,1.13
2022-09-21T14:34:01.143Z,0.93
2022-09-21T14:36:42.383Z,0.90
2022-09-21T14:39:40.042Z,1.17
2022-09-21T14:42:19.520Z,0.95
2022-09-21T14:44:51.458Z,1.10
2022-09-21T14:47:45.393Z,0.90
2022-09-21T14:50:30.074Z,1.10
2022-09-21T14:53:28.215Z,0.93
2022-09-21T14:56:45.103Z,1.20
2022-09-21T14:59:42.745Z,1.20
2022-09-21T15:02:23.998Z,1.40
2022-09-21T15:05:20.366Z,1.30
2022-09-21T15:08:56.973Z,1.20
2022-09-21T15:11:44.346Z,1.17
2022-09-21T15:14:34.645Z,1.48
2022-09-21T15:17:19.322Z,1.35
2022-09-21T15:19:50.123Z,1.05
2022-09-21T15:22:22.602Z,1.27
2022-09-21T15:25:04.092Z,1.13
2022-09-21T15:27:35.697Z,1.10
2022-09-21T15:30:06.441Z,1.00
2022-09-21T15:32:39.408Z,1.20
2022-09-21T15:35:15.882Z,1.90
2022-09-21T15:37:45.141Z,1.13
2022-09-21T15:40:25.761Z,1.10
2022-09-21T15:43:01.546Z,1.75
2022-09-21T15:46:00.955Z,1.10
2022-09-21T15:48:34.370Z,1.30
2022-09-21T15:51:04.583Z,1.55
2022-09-21T15:54:01.649Z,1.40
2022-09-21T15:56:35.297Z,1.83
2022-09-21T15:59:08.740Z,1.20
2022-09-21T16:01:53.309Z,1.30
2022-09-21T16:04:25.397Z,1.40
2022-09-21T16:07:00.615Z,1.65
2022-09-21T16:09:45.105Z,1.65
2022-09-21T16:12:43.215Z,1.80
2022-09-21T16:15:32.379Z,3.53
2022-09-21T16:18:06.952Z,2.03
2022-09-21T16:20:47.394Z,2.35
2022-09-21T16:23:25.663Z,2.20
2022-09-21T16:26:00.819Z,1.40
2022-09-21T16:28:41.712Z,1.35
2022-09-21T16:31:32.954Z,1.40
2022-09-21T16:34:37.375Z,1.35
2022-09-21T16:37:25.363Z,1.50
2022-09-21T16:39:55.388Z,1.40
2022-09-21T16:42:27.135Z,1.50
2022-09-21T16:44:55.476Z,1.30
2022-09-21T16:47:27.186Z,1.35
2022-09-21T16:50:01.582Z,1.20
2022-09-21T16:52:30.348Z,1.45
2022-09-21T16:54:58.737Z,1.35
2022-09-21T16:57:26.819Z,1.40
2022-09-21T16:59:54.666Z,1.15
2022-09-21T17:02:21.877Z,1.48
2022-09-21T17:04:49.122Z,2.30
2022-09-21T17:07:19.995Z,1.33
2022-09-21T17:09:48.101Z,1.42
2022-09-21T17:12:18.206Z,1.00
2022-09-21T17:14:47.389Z,1.05
2022-09-21T17:17:25.030Z,1.17
2022-09-21T17:19:53.915Z,0.90
2022-09-21T17:22:21.919Z,0.98
2022-09-21T17:24:52.506Z,1.00
2022-09-21T17:27:23.033Z,1.38
2022-09-21T17:29:50.661Z,1.08
2022-09-21T17:32:21.033Z,1.25
2022-09-21T17:35:13.426Z,0.88
2022-09-21T17:37:40.684Z,1.00
2022-09-21T17:40:11.123Z,1.30
2022-09-21T17:42:48.592Z,1.10
2022-09-21T17:45:37.666Z,1.10
2022-09-21T17:48:05.766Z,1.10
2022-09-21T17:50:36.567Z,0.98
2022-09-21T17:53:28.373Z,1.00
2022-09-21T17:56:00.278Z,1.13
2022-09-21T17:58:53.852Z,1.20
2022-09-21T18:01:33.884Z,1.10
2022-09-21T18:04:02.183Z,1.20
2022-09-21T18:06:30.120Z,1.40
2022-09-21T18:08:57.884Z,1.63
2022-09-21T18:11:24.948Z,1.40
2022-09-21T18:14:01.316Z,1.70
2022-09-21T18:16:53.034Z,1.42
2022-09-21T18:19:36.583Z,1.33
2022-09-21T18:22:54.254Z,1.40
2022-09-21T18:25:32.499Z,1.23
2022-09-21T18:28:13.006Z,1.25
2022-09-21T18:30:51.386Z,1.50
2022-09-21T18:33:38.373Z,2.05
2022-09-21T18:36:31.560Z,1.48
2022-09-21T18:39:54.731Z,1.50
2022-09-21T18:43:12.647Z,1.48
2022-09-21T18:46:06.732Z,1.67
2022-09-21T18:49:00.066Z,2.00
2022-09-21T18:51:54.354Z,2.08
2022-09-21T18:54:27.627Z,1.88
2022-09-21T18:56:56.067Z,1.95
2022-09-21T18:59:23.712Z,1.30
2022-09-21T19:01:51.745Z,1.17
2022-09-21T19:04:20.155Z,1.30
2022-09-21T19:07:21.401Z,1.02
2022-09-21T19:10:24.318Z,1.17
2022-09-21T19:13:23.234Z,1.23
2022-09-21T19:16:17.581Z,1.58
2022-09-21T19:19:17.132Z,1.10
2022-09-21T19:22:20.709Z,1.23
2022-09-21T19:25:34.116Z,1.10
2022-09-21T19:28:15.680Z,1.40
2022-09-21T19:30:50.968Z,1.50
2022-09-21T19:33:48.788Z,1.58
2022-09-21T19:36:16.626Z,1.65
2022-09-21T19:38:44.139Z,1.48
2022-09-21T19:41:41.659Z,1.50
2022-09-21T19:44:31.246Z,1.75
2022-09-21T19:47:22.909Z,1.50
2022-09-21T19:49:54.543Z,1.15
2022-09-21T19:52:36.285Z,1.40
2022-09-21T19:55:25.402Z,1.33
2022-09-21T19:58:11.681Z,1.77
2022-09-21T20:00:39.366Z,1.45
2022-09-21T20:03:31.578Z,1.70
2022-09-21T20:06:20.542Z,1.58
2022-09-21T20:09:29.197Z,1.67
2022-09-21T20:12:09.276Z,1.45
2022-09-21T20:15:17.731Z,1.60
2022-09-21T20:17:51.497Z,1.70
2022-09-21T20:20:26.782Z,1.65
2022-09-21T20:22:54.954Z,1.58
2022-09-21T20:25:56.520Z,1.65
2022-09-21T20:28:27.784Z,1.58
2022-09-21T20:30:58.420Z,1.33
2022-09-21T20:33:26.976Z,1.73
2022-09-21T20:35:55.645Z,1.73
2022-09-21T20:38:23.575Z,1.73
2022-09-21T20:40:51.664Z,2.00
2022-09-21T20:43:19.630Z,1.60
2022-09-21T20:45:49.377Z,1.80
2022-09-21T20:48:16.989Z,1.80
2022-09-21T20:50:48.068Z,1.70
2022-09-21T20:53:15.565Z,1.60
2022-09-21T20:55:58.130Z,1.50
2022-09-21T20:58:25.404Z,1.70
2022-09-21T21:00:57.930Z,1.70
2022-09-21T21:03:25.942Z,1.70
2022-09-21T21:06:12.437Z,1.90
2022-09-21T21:08:40.895Z,1.75
2022-09-21T21:11:08.211Z,2.08
2022-09-21T21:13:38.742Z,1.75
2022-09-21T21:16:11.591Z,1.85
2022-09-21T21:18:41.400Z,1.73
2022-09-21T21:21:09.558Z,1.85
2022-09-21T21:23:55.841Z,1.92
2022-09-21T21:29:13.028Z,1.80
2022-09-21T21:31:41.001Z,1.85
2022-09-21T21:34:08.179Z,2.20
2022-09-21T21:36:38.894Z,1.75
2022-09-21T21:39:07.623Z,1.88
2022-09-21T21:41:34.996Z,2.05
2022-09-21T21:44:05.438Z,1.95
2022-09-21T21:46:36.113Z,1.70
2022-09-21T21:49:03.436Z,2.10
2022-09-21T21:51:30.808Z,2.03
2022-09-21T21:54:01.179Z,1.90
2022-09-21T21:56:29.712Z,2.10
2022-09-21T21:58:59.802Z,2.00
2022-09-21T22:01:29.467Z,1.95
2022-09-21T22:04:02.284Z,2.03
2022-09-21T22:06:35.432Z,2.10
2022-09-21T22:09:06.000Z,1.95
2022-09-21T22:11:37.658Z,2.00
2022-09-21T22:14:06.553Z,1.90
2022-09-21T22:16:40.149Z,2.10
2022-09-21T22:19:09.032Z,2.40
2022-09-21T22:21:53.210Z,2.05
2022-09-21T22:24:22.268Z,1.73
2022-09-21T22:27:08.255Z,2.22
2022-09-21T22:29:35.835Z,2.38
2022-09-21T22:32:03.027Z,2.22
2022-09-21T22:34:31.358Z,2.35
2022-09-21T22:36:59.379Z,1.95
2022-09-21T22:39:28.006Z,2.40
2022-09-21T22:41:58.415Z,2.28
2022-09-21T22:44:25.544Z,2.38
2022-09-21T22:46:52.584Z,2.15
2022-09-21T22:49:20.098Z,2.20
2022-09-21T22:51:47.092Z,2.67
2022-09-21T22:54:14.105Z,2.17
2022-09-21T22:56:44.431Z,2.22
2022-09-21T22:59:11.426Z,2.03
2022-09-21T23:01:40.165Z,1.98
2022-09-21T23:04:11.674Z,1.83
2022-09-21T23:06:42.509Z,2.10
2022-09-21T23:09:19.820Z,1.85
2022-09-21T23:11:53.569Z,1.98
2022-09-21T23:14:24.159Z,2.05
2022-09-21T23:16:51.422Z,1.80
2022-09-21T23:19:18.668Z,1.58
2022-09-21T23:21:50.285Z,2.15
2022-09-21T23:24:18.077Z,2.20
2022-09-21T23:26:46.150Z,2.03
2022-09-21T23:29:16.585Z,1.92
2022-09-21T23:31:45.831Z,2.30
2022-09-21T23:34:16.807Z,1.73
2022-09-21T23:36:47.035Z,1.75
2022-09-21T23:39:15.643Z,1.90
2022-09-21T23:41:46.338Z,1.90
2022-09-21T23:44:16.449Z,2.10
2022-09-21T23:46:47.092Z,2.03
2022-09-21T23:49:14.259Z,2.00
2022-09-21T23:51:41.326Z,2.10
2022-09-21T23:54:12.590Z,2.15
2022-09-21T23:56:39.636Z,1.90
2022-09-21T23:59:09.962Z,2.08
